Time;durP1;ratioP1;P1;durP2;ratioP2;P2;SDS_P1;SDS_P2;PMS_P1;PMS_P2;Temp;Humidity;BMP_temperature;BMP_pressure;BME280_temperature;BME280_humidity;BME280_pressure;Samples;Min_cycle;Max_cycle;Signal;HPM_P1;HPM_P2
2021/06/14 00:00:07;;;;;;;20.50;13.00;;;19.50;99.90;;;;;;4344847;32;20173;-81
2021/06/14 00:02:33;;;;;;;20.95;13.30;;;19.50;99.90;;;;;;4333278;33;20228;-80
2021/06/14 00:04:59;;;;;;;20.80;13.27;;;19.40;99.90;;;;;;4344847;32;20086;-82
2021/06/14 00:07:26;;;;;;;21.10;12.55;;;19.40;99.90;;;;;;4332433;33;20076;-81
2021/06/14 00:09:52;;;;;;;18.20;12.43;;;19.40;99.90;;;;;;4346035;32;20552;-80
2021/06/14 00:12:21;;;;;;;16.25;11.60;;;19.40;99.90;;;;;;4332490;33;20067;-80
2021/06/14 00:14:51;;;;;;;17.00;11.10;;;19.40;99.90;;;;;;4349463;32;20075;-81
2021/06/14 00:17:17;;;;;;;19.75;12.20;;;19.50;99.90;;;;;;4335541;32;20517;-81
2021/06/14 00:19:46;;;;;;;18.42;11.57;;;19.50;99.90;;;;;;4347779;32;20176;-82
2021/06/14 00:22:12;;;;;;;14.05;10.45;;;19.50;99.90;;;;;;4347964;33;20142;-80
2021/06/14 00:24:38;;;;;;;14.57;10.45;;;19.50;99.90;;;;;;4335403;33;20126;-81
2021/06/14 00:27:05;;;;;;;13.82;10.13;;;19.60;99.90;;;;;;4335423;33;20113;-81
2021/06/14 00:29:31;;;;;;;12.75;9.85;;;19.60;99.90;;;;;;4347540;33;20122;-80
2021/06/14 00:31:58;;;;;;;13.75;9.77;;;19.50;99.90;;;;;;4335201;33;20509;-81
2021/06/14 00:34:24;;;;;;;15.07;9.70;;;19.60;99.90;;;;;;4347396;33;20099;-81
2021/06/14 00:36:50;;;;;;;11.75;8.80;;;19.60;99.90;;;;;;4347737;33;20083;-80
2021/06/14 00:39:16;;;;;;;11.60;8.20;;;19.60;99.90;;;;;;4359476;32;20067;-80
2021/06/14 00:41:42;;;;;;;10.80;7.70;;;19.70;99.90;;;;;;4363179;32;20074;-81
2021/06/14 00:44:09;;;;;;;9.80;7.70;;;19.70;99.90;;;;;;4353907;32;20081;-81
2021/06/14 00:46:36;;;;;;;11.77;7.80;;;19.60;99.90;;;;;;4335082;33;20078;-81
2021/06/14 00:49:02;;;;;;;9.65;7.90;;;19.60;99.90;;;;;;4336836;33;20071;-79
2021/06/14 00:51:28;;;;;;;13.70;8.30;;;19.60;99.90;;;;;;4361710;32;20135;-82
2021/06/14 00:53:57;;;;;;;11.40;8.70;;;19.60;99.90;;;;;;4347420;33;20526;-80
2021/06/14 00:56:24;;;;;;;12.07;8.50;;;19.60;99.90;;;;;;4335772;33;20164;-80
2021/06/14 00:58:50;;;;;;;11.98;9.43;;;19.60;99.90;;;;;;4347098;32;20517;-80
2021/06/14 01:01:16;;;;;;;13.15;9.10;;;19.60;99.90;;;;;;4334714;33;20501;-81
2021/06/14 01:03:42;;;;;;;12.05;8.65;;;19.60;99.90;;;;;;4347357;33;20513;-83
2021/06/14 01:06:11;;;;;;;10.07;8.63;;;19.60;99.90;;;;;;4334627;33;20213;-81
2021/06/14 01:08:42;;;;;;;11.10;8.45;;;19.70;99.90;;;;;;4334948;33;20134;-82
2021/06/14 01:11:28;;;;;;;15.48;11.55;;;19.60;99.90;;;;;;4347650;33;20507;-79
2021/06/14 01:14:14;;;;;;;13.77;10.90;;;19.50;99.90;;;;;;4335848;33;20070;-82
2021/06/14 01:17:17;;;;;;;14.30;10.55;;;19.60;99.90;;;;;;4336244;33;20114;-80
2021/06/14 01:20:27;;;;;;;14.52;11.27;;;19.60;99.90;;;;;;4326273;33;20080;-82
2021/06/14 01:23:49;;;;;;;14.87;11.15;;;19.60;99.90;;;;;;4327460;33;20067;-81
2021/06/14 01:26:21;;;;;;;14.80;11.88;;;19.60;99.90;;;;;;4344076;33;20086;-81
2021/06/14 01:28:53;;;;;;;13.02;10.48;;;19.70;99.90;;;;;;4320148;33;20083;-81
2021/06/14 01:31:22;;;;;;;17.08;12.00;;;19.70;99.90;;;;;;4319554;33;20088;-81
2021/06/14 01:33:49;;;;;;;19.58;12.50;;;19.70;99.90;;;;;;4331999;33;20158;-82
2021/06/14 01:36:35;;;;;;;15.35;10.20;;;19.70;99.90;;;;;;4336361;33;20521;-80
2021/06/14 01:39:01;;;;;;;15.43;11.80;;;19.80;99.90;;;;;;4346512;33;20072;-79
2021/06/14 01:41:28;;;;;;;16.23;11.90;;;19.90;99.90;;;;;;4346575;32;20082;-81
2021/06/14 01:43:54;;;;;;;18.52;12.37;;;19.90;99.90;;;;;;4334550;33;20162;-82
2021/06/14 01:46:27;;;;;;;21.58;11.60;;;20.00;99.90;;;;;;4346366;32;20148;-81
2021/06/14 01:48:53;;;;;;;15.38;10.75;;;20.10;99.90;;;;;;4346885;33;20152;-81
2021/06/14 01:51:27;;;;;;;14.90;11.45;;;20.10;99.90;;;;;;4334203;33;20498;-82
2021/06/14 01:54:03;;;;;;;17.95;12.25;;;20.20;99.90;;;;;;4334333;33;20167;-81
2021/06/14 01:56:36;;;;;;;14.10;10.65;;;20.20;99.90;;;;;;4335121;33;20085;-81
2021/06/14 01:59:04;;;;;;;14.90;11.45;;;20.20;99.90;;;;;;4346209;33;20598;-82
2021/06/14 02:01:30;;;;;;;15.95;11.20;;;20.10;99.90;;;;;;4334329;33;20137;-81
2021/06/14 02:04:01;;;;;;;14.45;11.23;;;20.20;99.90;;;;;;4334265;33;20089;-81
2021/06/14 02:06:33;;;;;;;16.85;10.52;;;20.30;99.90;;;;;;4346286;33;20449;-81
2021/06/14 02:09:04;;;;;;;16.80;11.48;;;20.20;99.90;;;;;;4346384;33;20085;-81
2021/06/14 02:11:31;;;;;;;17.12;11.60;;;20.10;99.90;;;;;;4346608;33;20059;-79
2021/06/14 02:13:57;;;;;;;14.98;11.50;;;20.10;99.90;;;;;;4321965;33;20494;-82
2021/06/14 02:16:24;;;;;;;18.55;13.07;;;20.20;99.90;;;;;;4322024;33;20581;-82
2021/06/14 02:18:50;;;;;;;17.23;12.65;;;20.10;99.90;;;;;;4333512;33;20146;-81
2021/06/14 02:21:17;;;;;;;17.30;11.65;;;20.20;99.90;;;;;;4321224;33;20519;-80
2021/06/14 02:23:43;;;;;;;18.58;12.27;;;20.20;99.90;;;;;;4346097;33;20154;-83
2021/06/14 02:26:09;;;;;;;16.67;12.18;;;20.20;99.90;;;;;;4359546;32;20090;-77
2021/06/14 02:28:36;;;;;;;17.25;12.52;;;20.10;99.90;;;;;;4348427;32;20090;-81
2021/06/14 02:31:03;;;;;;;14.50;12.48;;;20.10;99.90;;;;;;4348401;32;20594;-81
2021/06/14 02:33:29;;;;;;;20.08;13.95;;;20.00;99.90;;;;;;4348114;32;20093;-81
2021/06/14 02:35:56;;;;;;;21.37;13.90;;;20.00;99.90;;;;;;4336982;32;20078;-79
2021/06/14 02:38:22;;;;;;;19.62;13.60;;;20.20;99.90;;;;;;4350188;32;20074;-81
2021/06/14 02:40:48;;;;;;;21.77;14.02;;;20.20;99.90;;;;;;4336187;32;20066;-79
2021/06/14 02:43:14;;;;;;;21.10;14.73;;;20.30;99.90;;;;;;4336525;32;20093;-81
2021/06/14 02:45:41;;;;;;;23.98;14.93;;;20.30;99.90;;;;;;4348239;32;20062;-82
2021/06/14 02:48:07;;;;;;;19.80;14.32;;;20.30;99.90;;;;;;4335597;32;20070;-81
2021/06/14 02:50:35;;;;;;;19.60;13.98;;;20.30;99.90;;;;;;4335835;32;20155;-80
2021/06/14 02:53:04;;;;;;;19.30;15.32;;;20.40;99.90;;;;;;4348157;32;20082;-79
2021/06/14 02:55:35;;;;;;;25.12;15.25;;;20.60;99.90;;;;;;4336086;32;20063;-81
2021/06/14 02:58:01;;;;;;;17.80;14.30;;;20.70;99.90;;;;;;4337458;32;20078;-81
2021/06/14 03:00:30;;;;;;;21.15;15.13;;;20.80;99.90;;;;;;4336121;32;20112;-81
2021/06/14 03:03:06;;;;;;;20.35;15.38;;;21.00;99.90;;;;;;4347873;32;20105;-82
2021/06/14 03:05:33;;;;;;;24.23;16.17;;;21.10;99.90;;;;;;4335674;32;20158;-82
2021/06/14 03:08:00;;;;;;;26.52;17.85;;;21.20;99.90;;;;;;4348069;32;20078;-82
2021/06/14 03:10:28;;;;;;;25.90;18.02;;;21.30;99.90;;;;;;4347462;32;20075;-79
2021/06/14 03:12:56;;;;;;;27.50;18.92;;;21.40;99.90;;;;;;4335494;32;20078;-82
2021/06/14 03:15:24;;;;;;;27.58;18.95;;;21.20;99.90;;;;;;4347522;32;20070;-82
2021/06/14 03:17:52;;;;;;;26.30;18.75;;;21.30;99.90;;;;;;4348161;32;20097;-79
2021/06/14 03:20:20;;;;;;;31.50;19.10;;;21.30;99.90;;;;;;4335213;32;20133;-80
2021/06/14 03:22:46;;;;;;;28.05;19.37;;;21.20;99.90;;;;;;4335663;32;20069;-81
2021/06/14 03:25:13;;;;;;;25.88;18.52;;;21.10;99.90;;;;;;4358681;32;20071;-82
2021/06/14 03:27:39;;;;;;;27.98;19.92;;;21.30;99.90;;;;;;4350149;32;20088;-79
2021/06/14 03:30:06;;;;;;;26.60;19.77;;;21.60;99.90;;;;;;4337555;32;20159;-78
2021/06/14 03:32:32;;;;;;;25.20;19.75;;;21.70;99.90;;;;;;4340280;32;20089;-79
2021/06/14 03:34:58;;;;;;;28.62;20.33;;;21.80;99.90;;;;;;4344496;32;20089;-82
2021/06/14 03:37:26;;;;;;;32.00;20.88;;;21.70;99.90;;;;;;4339686;32;20070;-81
2021/06/14 03:39:52;;;;;;;25.88;19.77;;;21.70;99.90;;;;;;4347857;32;20069;-79
2021/06/14 03:42:20;;;;;;;24.77;19.12;;;21.90;99.90;;;;;;4335537;32;20084;-77
2021/06/14 03:44:46;;;;;;;27.52;19.92;;;21.80;99.90;;;;;;4335646;32;20074;-79
2021/06/14 03:47:12;;;;;;;24.37;19.12;;;22.30;99.90;;;;;;4335571;32;20096;-78
2021/06/14 03:49:38;;;;;;;28.33;20.83;;;22.10;99.90;;;;;;4337809;32;20085;-77
2021/06/14 03:52:05;;;;;;;23.98;16.80;;;21.80;99.90;;;;;;4338312;32;20093;-78
2021/06/14 03:54:31;;;;;;;21.15;17.12;;;21.90;99.90;;;;;;4350795;32;20082;-78
2021/06/14 03:56:57;;;;;;;20.98;14.68;;;22.40;99.90;;;;;;4338478;32;20610;-80
2021/06/14 03:59:24;;;;;;;20.50;15.65;;;22.20;99.90;;;;;;4340880;32;20082;-82
2021/06/14 04:01:50;;;;;;;22.58;16.85;;;22.70;99.90;;;;;;4353213;32;20074;-83
2021/06/14 04:06:54;;;;;;;18.30;15.30;;;22.30;99.90;;;;;;4367217;32;20097;-82
2021/06/14 04:09:21;;;;;;;22.73;15.30;;;22.20;99.90;;;;;;4365228;32;20065;-83
2021/06/14 04:11:47;;;;;;;18.45;14.68;;;22.10;99.90;;;;;;4353179;32;20088;-82
2021/06/14 04:14:13;;;;;;;18.50;14.05;;;22.30;99.90;;;;;;4352911;32;20066;-78
2021/06/14 04:16:39;;;;;;;16.75;13.48;;;22.40;99.90;;;;;;4352787;32;20527;-82
2021/06/14 04:19:05;;;;;;;16.15;12.52;;;22.60;99.90;;;;;;4365175;32;20085;-80
2021/06/14 04:21:32;;;;;;;15.77;11.52;;;22.90;99.90;;;;;;4352968;32;20081;-79
2021/06/14 04:23:58;;;;;;;14.80;11.68;;;23.00;99.90;;;;;;4341178;32;20066;-81
2021/06/14 04:26:24;;;;;;;16.15;11.32;;;23.00;99.90;;;;;;4352105;32;20153;-76
2021/06/14 04:28:50;;;;;;;15.50;10.40;;;23.10;99.90;;;;;;4352545;32;20059;-80
2021/06/14 04:31:16;;;;;;;15.25;12.00;;;22.90;99.90;;;;;;4364770;32;20448;-82
2021/06/14 04:33:43;;;;;;;16.17;11.93;;;23.00;99.90;;;;;;4365151;32;20077;-82
2021/06/14 04:36:09;;;;;;;14.68;11.63;;;23.20;99.90;;;;;;4361303;32;20064;-81
2021/06/14 04:38:36;;;;;;;14.25;11.70;;;24.30;99.90;;;;;;4337637;32;20078;-82
2021/06/14 04:41:02;;;;;;;15.80;12.60;;;24.50;99.90;;;;;;4337546;32;20079;-81
2021/06/14 04:43:29;;;;;;;15.10;12.10;;;24.50;99.90;;;;;;4350056;32;20071;-80
2021/06/14 04:45:55;;;;;;;14.82;12.43;;;24.90;99.90;;;;;;4349646;32;20513;-81
2021/06/14 04:48:21;;;;;;;16.85;11.45;;;24.90;99.90;;;;;;4350034;32;20191;-81
2021/06/14 04:50:48;;;;;;;15.60;10.63;;;25.90;99.90;;;;;;4337280;32;20055;-80
2021/06/14 04:53:14;;;;;;;13.35;9.95;;;26.10;99.90;;;;;;4325681;32;20058;-82
2021/06/14 04:55:41;;;;;;;11.82;8.13;;;25.90;99.90;;;;;;4349629;32;20101;-82
2021/06/14 04:58:08;;;;;;;12.90;8.98;;;25.40;99.90;;;;;;4338930;32;20505;-81
2021/06/14 05:00:34;;;;;;;13.48;9.57;;;24.70;99.90;;;;;;4349160;32;20066;-82
2021/06/14 05:03:01;;;;;;;9.43;7.72;;;24.70;99.90;;;;;;4349839;32;20098;-83
2021/06/14 05:05:27;;;;;;;9.50;7.57;;;24.90;99.90;;;;;;4337821;32;20574;-81
2021/06/14 05:07:53;;;;;;;12.90;8.10;;;25.40;99.90;;;;;;4349459;32;20097;-82
2021/06/14 05:10:20;;;;;;;10.95;6.30;;;25.60;99.90;;;;;;4349436;32;20094;-82
2021/06/14 05:12:46;;;;;;;8.20;4.95;;;25.30;99.90;;;;;;4325359;32;20074;-81
2021/06/14 05:15:12;;;;;;;9.63;6.30;;;26.00;99.90;;;;;;4336759;32;20147;-80
2021/06/14 05:17:39;;;;;;;8.15;4.93;;;25.90;99.90;;;;;;4337373;32;20079;-82
2021/06/14 05:20:06;;;;;;;8.73;5.75;;;26.40;99.90;;;;;;4324713;32;20075;-81
2021/06/14 05:22:32;;;;;;;5.93;5.12;;;25.70;99.90;;;;;;4349464;32;20162;-81
2021/06/14 05:24:59;;;;;;;6.82;5.25;;;25.60;99.90;;;;;;4349680;32;20065;-82
2021/06/14 05:27:25;;;;;;;6.20;4.90;;;25.20;99.90;;;;;;4336568;32;20265;-82
2021/06/14 05:29:51;;;;;;;6.68;5.00;;;25.90;99.90;;;;;;4349778;32;20078;-81
2021/06/14 05:32:18;;;;;;;6.82;4.68;;;25.80;99.90;;;;;;4349290;32;20081;-82
2021/06/14 05:34:44;;;;;;;5.40;4.37;;;25.40;99.90;;;;;;4349155;32;20078;-81
2021/06/14 05:37:10;;;;;;;6.00;4.57;;;26.40;99.90;;;;;;4348989;32;20069;-82
2021/06/14 05:39:36;;;;;;;5.62;4.15;;;26.80;99.90;;;;;;4324814;32;20078;-81
2021/06/14 05:42:03;;;;;;;6.43;4.50;;;27.40;99.90;;;;;;4362907;32;20077;-78
2021/06/14 05:44:29;;;;;;;6.57;3.62;;;27.20;99.90;;;;;;4348682;32;20055;-79
2021/06/14 05:46:55;;;;;;;5.20;3.95;;;27.00;99.90;;;;;;4348829;32;20223;-80
2021/06/14 05:49:22;;;;;;;4.80;3.65;;;27.60;99.90;;;;;;4349018;32;20217;-82
2021/06/14 05:51:48;;;;;;;4.40;3.58;;;27.80;99.90;;;;;;4336556;32;20101;-81
2021/06/14 05:54:14;;;;;;;6.32;4.12;;;27.70;99.90;;;;;;4349045;32;20070;-81
2021/06/14 05:56:40;;;;;;;5.85;3.72;;;27.20;99.90;;;;;;4349046;32;20160;-83
2021/06/14 05:59:07;;;;;;;8.55;3.90;;;27.90;99.90;;;;;;4337609;32;20090;-81
2021/06/14 06:01:33;;;;;;;6.35;4.22;;;28.20;99.90;;;;;;4336691;32;20458;-80
2021/06/14 06:03:59;;;;;;;8.10;4.25;;;27.20;99.90;;;;;;4337020;32;20067;-79
2021/06/14 06:06:25;;;;;;;4.10;3.15;;;27.40;99.90;;;;;;4362736;32;20082;-79
2021/06/14 06:08:52;;;;;;;5.32;4.15;;;27.40;99.90;;;;;;4350923;32;20076;-77
2021/06/14 06:11:18;;;;;;;6.50;4.15;;;26.40;99.90;;;;;;4336473;32;20186;-80
2021/06/14 06:13:44;;;;;;;6.43;4.25;;;26.20;99.90;;;;;;4336422;32;20074;-80
2021/06/14 06:16:10;;;;;;;4.95;3.55;;;26.60;99.90;;;;;;4362297;32;20493;-81
2021/06/14 06:18:36;;;;;;;5.05;3.90;;;28.00;96.60;;;;;;4336447;32;20094;-79
2021/06/14 06:21:03;;;;;;;7.45;4.05;;;27.50;97.10;;;;;;4336290;32;20055;-77
2021/06/14 06:23:29;;;;;;;7.50;4.37;;;27.20;98.30;;;;;;4338596;32;20055;-80
2021/06/14 06:25:55;;;;;;;9.02;4.22;;;26.80;97.30;;;;;;4343184;32;20078;-80
2021/06/14 06:28:22;;;;;;;5.12;4.10;;;27.00;97.70;;;;;;4339451;32;20078;-79
2021/06/14 06:30:48;;;;;;;5.75;4.20;;;26.70;99.90;;;;;;4336546;32;20074;-79
2021/06/14 06:33:14;;;;;;;4.70;4.00;;;26.70;99.90;;;;;;4324181;32;20182;-81
2021/06/14 06:35:41;;;;;;;4.15;3.20;;;26.80;99.90;;;;;;4335663;32;20161;-80
2021/06/14 06:38:07;;;;;;;2.30;1.95;;;26.40;96.70;;;;;;4335666;32;20554;-80
2021/06/14 06:40:33;;;;;;;5.05;3.62;;;26.60;94.80;;;;;;4348411;32;20084;-80
2021/06/14 06:42:59;;;;;;;5.30;3.90;;;26.90;94.90;;;;;;4348295;32;20488;-81
2021/06/14 06:45:26;;;;;;;5.87;3.90;;;26.60;95.90;;;;;;4348724;32;20082;-81
2021/06/14 06:47:52;;;;;;;5.62;3.65;;;26.90;96.20;;;;;;4347859;32;20074;-81
2021/06/14 06:50:19;;;;;;;3.80;3.40;;;27.00;91.20;;;;;;4361014;32;20082;-81
2021/06/14 06:52:45;;;;;;;7.30;3.78;;;26.60;91.60;;;;;;4348520;32;20510;-79
2021/06/14 06:55:13;;;;;;;5.03;3.53;;;26.70;92.70;;;;;;4335858;32;20097;-80
2021/06/14 06:57:40;;;;;;;6.32;3.90;;;26.50;95.70;;;;;;4348354;32;20074;-80
2021/06/14 07:00:13;;;;;;;5.43;3.47;;;26.20;97.30;;;;;;4348091;32;20159;-79
2021/06/14 07:02:39;;;;;;;6.57;4.18;;;26.50;97.60;;;;;;4347970;32;20161;-79
2021/06/14 07:05:06;;;;;;;5.05;3.45;;;26.70;96.60;;;;;;4335881;32;20074;-79
2021/06/14 07:07:32;;;;;;;7.25;3.65;;;26.70;95.70;;;;;;4347796;32;20520;-79
2021/06/14 07:09:59;;;;;;;5.50;3.75;;;26.60;96.00;;;;;;4335876;32;20183;-80
2021/06/14 07:12:25;;;;;;;4.07;3.60;;;26.70;94.90;;;;;;4335515;32;20075;-80
2021/06/14 07:14:52;;;;;;;6.75;3.75;;;27.00;94.90;;;;;;4348085;32;20167;-80
2021/06/14 07:17:18;;;;;;;6.22;3.83;;;26.60;95.70;;;;;;4347610;32;20081;-77
2021/06/14 07:19:45;;;;;;;6.80;3.75;;;26.80;95.40;;;;;;4348292;32;20078;-80
2021/06/14 07:22:12;;;;;;;4.43;4.03;;;27.10;93.60;;;;;;4348215;32;20071;-80
2021/06/14 07:24:38;;;;;;;6.30;3.97;;;26.60;96.40;;;;;;4347801;32;20502;-81
2021/06/14 07:27:05;;;;;;;6.57;3.90;;;27.10;95.70;;;;;;4361503;32;20101;-80
2021/06/14 07:29:31;;;;;;;4.53;3.35;;;27.20;94.10;;;;;;4348341;32;20073;-79
2021/06/14 07:31:58;;;;;;;3.47;3.17;;;27.20;95.60;;;;;;4335325;32;20086;-81
2021/06/14 07:34:25;;;;;;;4.22;3.62;;;27.10;91.60;;;;;;4347943;32;20167;-80
2021/06/14 07:36:52;;;;;;;4.87;3.70;;;27.00;92.30;;;;;;4353035;32;20086;-78
2021/06/14 07:39:18;;;;;;;5.10;3.17;;;26.90;87.20;;;;;;4336348;32;20085;-79
2021/06/14 07:41:44;;;;;;;4.22;3.47;;;27.00;90.30;;;;;;4359729;32;20051;-76
2021/06/14 07:44:11;;;;;;;4.93;3.62;;;27.10;88.70;;;;;;4347909;32;20086;-80
2021/06/14 07:46:37;;;;;;;4.70;3.03;;;27.20;85.80;;;;;;4347954;32;20167;-78
2021/06/14 07:49:03;;;;;;;4.87;3.20;;;27.20;84.50;;;;;;4360271;32;20121;-81
2021/06/14 07:51:29;;;;;;;6.78;3.85;;;27.30;85.80;;;;;;4347842;32;20071;-78
2021/06/14 07:53:55;;;;;;;5.18;3.85;;;26.90;87.70;;;;;;4360010;32;20074;-79
2021/06/14 07:56:22;;;;;;;4.53;3.83;;;26.90;91.00;;;;;;4362395;32;20154;-79
2021/06/14 07:58:48;;;;;;;3.90;3.40;;;27.20;91.00;;;;;;4350171;32;20162;-81
2021/06/14 08:01:14;;;;;;;4.62;3.72;;;27.30;90.70;;;;;;4350292;32;20069;-81
2021/06/14 08:03:41;;;;;;;4.47;3.50;;;27.60;85.90;;;;;;4337736;32;20066;-78
2021/06/14 08:06:07;;;;;;;6.55;3.70;;;27.50;88.30;;;;;;4362417;32;20068;-79
2021/06/14 08:08:33;;;;;;;3.87;3.40;;;27.50;86.60;;;;;;4351144;32;20066;-78
2021/06/14 08:11:00;;;;;;;7.20;4.03;;;27.50;84.20;;;;;;4339471;32;20093;-77
2021/06/14 08:13:28;;;;;;;4.60;3.53;;;27.50;86.40;;;;;;4362920;32;20089;-76
2021/06/14 08:15:54;;;;;;;4.30;3.90;;;27.60;88.40;;;;;;4338133;32;20166;-81
2021/06/14 08:26:27;;;;;;;7.55;3.83;;;27.30;84.70;;;;;;4363914;32;20164;-77
2021/06/14 08:28:56;;;;;;;6.75;3.83;;;27.50;86.00;;;;;;4362595;32;20066;-80
2021/06/14 08:31:22;;;;;;;7.18;3.70;;;27.50;82.60;;;;;;4338262;32;20092;-79
2021/06/14 08:33:49;;;;;;;4.30;3.72;;;27.50;85.80;;;;;;4350415;32;20104;-80
2021/06/14 08:36:15;;;;;;;5.03;3.40;;;27.70;83.90;;;;;;4348707;32;20074;-80
2021/06/14 08:38:41;;;;;;;4.70;3.40;;;27.40;82.20;;;;;;4337780;32;20086;-80
2021/06/14 08:41:07;;;;;;;4.57;3.60;;;27.20;84.20;;;;;;4338157;32;20073;-78
2021/06/14 08:43:34;;;;;;;5.43;3.65;;;27.20;85.10;;;;;;4337752;32;20066;-80
2021/06/14 08:46:00;;;;;;;3.92;3.50;;;27.50;86.70;;;;;;4337615;32;20513;-81
2021/06/14 08:48:26;;;;;;;4.60;3.25;;;27.80;86.20;;;;;;4337559;32;20141;-79
2021/06/14 08:50:53;;;;;;;5.22;3.50;;;28.00;84.90;;;;;;4325213;32;20081;-81
2021/06/14 08:53:20;;;;;;;4.00;3.40;;;28.10;79.70;;;;;;4338005;32;20171;-78
2021/06/14 08:55:46;;;;;;;5.90;3.30;;;27.90;80.10;;;;;;4337641;32;20085;-80
2021/06/14 08:58:12;;;;;;;6.28;3.65;;;27.50;83.70;;;;;;4337494;32;20153;-80
2021/06/14 09:00:39;;;;;;;4.72;3.40;;;27.70;83.20;;;;;;4349774;32;20589;-80
2021/06/14 09:03:05;;;;;;;6.00;3.45;;;27.80;80.60;;;;;;4349435;32;20089;-80
2021/06/14 09:05:32;;;;;;;5.15;3.65;;;28.40;82.30;;;;;;4349413;32;20066;-80
2021/06/14 09:08:01;;;;;;;6.95;3.83;;;27.80;77.50;;;;;;4337537;32;20154;-81
2021/06/14 09:10:31;;;;;;;4.35;3.22;;;27.80;80.00;;;;;;4337525;32;20078;-80
2021/06/14 09:13:27;;;;;;;4.72;4.00;;;27.90;79.10;;;;;;4337071;32;20087;-79
2021/06/14 09:16:03;;;;;;;7.03;3.78;;;28.20;82.70;;;;;;4349752;32;20102;-80
2021/06/14 09:18:29;;;;;;;;;;;28.00;80.90;;;;;;4351602;32;20090;-78
2021/06/14 09:21:09;;;;;;;3.97;3.20;;;27.90;80.30;;;;;;4325815;32;19977;-79
2021/06/14 09:23:49;;;;;;;5.10;3.50;;;28.20;79.10;;;;;;4349376;32;20072;-81
2021/06/14 09:26:29;;;;;;;6.25;3.30;;;28.30;76.90;;;;;;4339372;32;20144;-75
2021/06/14 09:29:06;;;;;;;5.53;4.10;;;28.30;77.90;;;;;;4353255;32;20070;-72
2021/06/14 09:32:01;;;;;;;5.05;3.28;;;27.70;77.50;;;;;;4347049;32;20089;-77
2021/06/14 09:34:46;;;;;;;3.75;3.33;;;27.70;78.50;;;;;;4327602;32;20066;-74
2021/06/14 09:37:16;;;;;;;4.90;3.75;;;28.10;76.40;;;;;;4327146;32;20430;-76
2021/06/14 09:39:44;;;;;;;4.03;3.30;;;28.20;74.80;;;;;;4321858;32;20078;-75
2021/06/14 09:42:30;;;;;;;5.62;3.65;;;29.10;71.80;;;;;;4328534;32;20076;-76
2021/06/14 09:45:05;;;;;;;4.78;3.85;;;28.80;71.00;;;;;;4365738;32;20070;-73
2021/06/14 09:47:31;;;;;;;4.40;3.53;;;28.90;70.90;;;;;;4338840;32;20148;-75
2021/06/14 09:50:08;;;;;;;5.40;4.00;;;28.50;75.80;;;;;;4350874;32;20089;-76
2021/06/14 09:52:34;;;;;;;6.50;4.07;;;28.40;74.30;;;;;;4345476;32;20155;-76
2021/06/14 09:55:09;;;;;;;5.35;3.67;;;28.40;75.70;;;;;;4351444;32;20124;-73
2021/06/14 09:57:35;;;;;;;5.28;3.67;;;28.50;74.80;;;;;;4348014;32;20074;-72
2021/06/14 10:00:28;;;;;;;5.43;3.65;;;28.50;76.20;;;;;;4348897;32;20078;-74
2021/06/14 10:03:00;;;;;;;4.15;3.60;;;28.60;73.10;;;;;;4355043;32;20082;-73
2021/06/14 10:05:26;;;;;;;6.80;3.60;;;28.00;76.40;;;;;;4344142;32;20079;-72
2021/06/14 10:07:56;;;;;;;6.07;4.30;;;28.20;80.10;;;;;;4332133;32;20512;-72
2021/06/14 10:10:27;;;;;;;6.40;3.45;;;28.20;78.90;;;;;;4332754;32;20062;-75
2021/06/14 10:12:55;;;;;;;4.62;3.85;;;28.00;79.20;;;;;;4341530;32;20503;-74
2021/06/14 10:15:38;;;;;;;3.97;3.10;;;28.00;80.50;;;;;;4353204;32;20552;-74
2021/06/14 10:18:09;;;;;;;6.43;3.42;;;28.10;83.30;;;;;;4321700;32;20077;-74
2021/06/14 10:20:37;;;;;;;5.37;3.72;;;28.00;80.70;;;;;;4341718;32;20163;-73
2021/06/14 10:23:03;;;;;;;5.85;3.60;;;28.20;84.40;;;;;;4327441;32;20071;-76
2021/06/14 10:25:29;;;;;;;5.12;3.72;;;28.20;82.10;;;;;;4352906;32;20066;-75
2021/06/14 10:27:56;;;;;;;5.87;3.92;;;28.20;81.10;;;;;;4350469;32;20101;-76
2021/06/14 10:30:23;;;;;;;4.65;3.72;;;28.20;80.70;;;;;;4327800;32;20074;-75
2021/06/14 10:32:50;;;;;;;8.48;4.00;;;28.20;81.00;;;;;;4344385;32;20515;-72
2021/06/14 10:35:18;;;;;;;6.18;3.60;;;28.30;80.60;;;;;;4359450;32;20082;-71
2021/06/14 10:37:53;;;;;;;7.03;3.97;;;28.20;81.50;;;;;;4349116;32;20070;-72
2021/06/14 10:40:22;;;;;;;6.90;4.12;;;28.10;82.00;;;;;;4339931;32;20496;-71
2021/06/14 10:42:49;;;;;;;7.20;3.83;;;28.40;82.10;;;;;;4334812;32;20078;-71
2021/06/14 10:45:18;;;;;;;4.43;3.60;;;28.30;82.10;;;;;;4329161;32;20082;-73
2021/06/14 10:47:46;;;;;;;4.53;3.50;;;28.10;80.50;;;;;;4332658;32;20265;-73
2021/06/14 10:50:25;;;;;;;4.90;3.62;;;28.10;82.20;;;;;;4337828;32;20461;-72
2021/06/14 10:52:54;;;;;;;7.50;3.78;;;28.00;81.80;;;;;;4335177;32;20076;-73
2021/06/14 10:55:31;;;;;;;6.03;4.12;;;28.10;82.70;;;;;;4329934;32;20155;-69
2021/06/14 10:57:57;;;;;;;5.45;4.25;;;27.90;88.10;;;;;;4321455;32;20074;-72
2021/06/14 11:00:28;;;;;;;10.13;4.00;;;28.20;90.00;;;;;;4323094;32;20097;-73
2021/06/14 11:03:00;;;;;;;6.55;4.35;;;28.00;90.20;;;;;;4337037;32;20111;-76
2021/06/14 11:05:40;;;;;;;6.97;4.22;;;27.50;92.90;;;;;;4339665;32;20097;-76
2021/06/14 11:08:16;;;;;;;4.68;3.95;;;27.80;91.90;;;;;;4355702;32;20164;-72
2021/06/14 11:10:44;;;;;;;6.10;4.72;;;28.20;91.10;;;;;;4342217;32;20090;-73
2021/06/14 11:13:11;;;;;;;6.62;4.07;;;28.10;92.40;;;;;;4351035;32;20059;-71
2021/06/14 11:15:39;;;;;;;4.68;3.95;;;28.00;92.40;;;;;;4351531;32;20098;-69
2021/06/14 11:18:06;;;;;;;5.50;4.07;;;27.80;93.20;;;;;;4344375;32;20361;-70
2021/06/14 11:20:38;;;;;;;5.53;4.53;;;27.50;94.20;;;;;;4335312;32;20134;-71
2021/06/14 11:23:06;;;;;;;5.68;4.32;;;27.50;94.00;;;;;;4332391;32;20484;-72
2021/06/14 11:25:42;;;;;;;5.50;4.25;;;27.20;94.40;;;;;;4347814;32;20535;-74
2021/06/14 11:28:10;;;;;;;;;;;27.20;94.50;;;;;;4329478;32;20090;-74
2021/06/14 11:30:50;;;;;;;6.32;3.80;;;27.30;94.40;;;;;;4347280;32;19966;-72
2021/06/14 11:33:28;;;;;;;5.20;3.97;;;27.50;93.40;;;;;;4333185;32;20092;-73
2021/06/14 11:35:57;;;;;;;7.82;4.40;;;27.20;92.80;;;;;;4338563;32;20129;-71
2021/06/14 11:38:25;;;;;;;7.25;4.35;;;27.20;92.80;;;;;;4347336;32;20082;-72
2021/06/14 11:40:57;;;;;;;9.18;3.92;;;27.10;92.90;;;;;;4350324;32;20078;-74
2021/06/14 11:43:24;;;;;;;6.00;3.50;;;27.30;92.30;;;;;;4348728;32;20183;-76
2021/06/14 11:45:52;;;;;;;5.80;4.07;;;27.50;92.00;;;;;;4351321;32;20508;-70
2021/06/14 11:48:32;;;;;;;4.70;3.85;;;27.30;93.70;;;;;;4341148;32;20187;-71
2021/06/14 11:51:19;;;;;;;4.10;3.67;;;27.10;92.10;;;;;;4340048;32;20501;-72
2021/06/14 11:53:54;;;;;;;4.75;3.87;;;27.20;93.40;;;;;;4317382;32;20090;-72
2021/06/14 11:56:22;;;;;;;4.67;3.83;;;27.30;92.70;;;;;;4331983;32;20082;-71
2021/06/14 11:58:51;;;;;;;6.43;4.07;;;27.30;90.60;;;;;;4315509;32;20194;-70
2021/06/14 12:01:27;;;;;;;6.37;3.85;;;27.60;85.30;;;;;;4336155;32;20077;-72
2021/06/14 12:04:01;;;;;;;5.25;4.03;;;27.20;85.00;;;;;;4332160;32;20085;-70
2021/06/14 12:06:28;;;;;;;7.03;3.90;;;27.30;83.90;;;;;;4332916;32;20150;-70
2021/06/14 12:09:09;;;;;;;5.70;3.80;;;27.40;84.00;;;;;;4322833;32;20542;-71
2021/06/14 12:11:35;;;;;;;4.20;3.55;;;27.30;84.90;;;;;;4321446;32;20542;-71
2021/06/14 12:14:15;;;;;;;6.70;4.37;;;27.30;83.90;;;;;;4360581;32;20106;-71
2021/06/14 12:16:43;;;;;;;7.25;3.87;;;27.20;83.00;;;;;;4345983;32;20110;-74
2021/06/14 12:19:09;;;;;;;7.60;3.80;;;27.20;83.20;;;;;;4354609;32;20109;-77
2021/06/14 12:21:36;;;;;;;5.60;3.90;;;27.30;81.60;;;;;;4321381;32;20114;-74
2021/06/14 12:24:03;;;;;;;6.97;3.72;;;27.30;83.60;;;;;;4348013;32;20127;-73
2021/06/14 12:26:38;;;;;;;4.30;3.58;;;27.50;82.50;;;;;;4341458;32;20493;-75
2021/06/14 12:29:05;;;;;;;4.57;3.70;;;27.50;78.60;;;;;;4352220;32;20425;-75
2021/06/14 12:31:32;;;;;;;4.55;3.55;;;27.10;75.20;;;;;;4343694;32;20094;-76
2021/06/14 12:33:58;;;;;;;5.68;3.70;;;27.10;77.40;;;;;;4334062;32;20112;-75
2021/06/14 12:36:25;;;;;;;7.10;3.37;;;27.30;76.10;;;;;;4335096;32;20155;-77
2021/06/14 12:38:53;;;;;;;5.55;3.45;;;27.20;77.30;;;;;;4336502;32;20085;-75
2021/06/14 12:41:20;;;;;;;5.60;3.95;;;27.10;79.80;;;;;;4335091;32;20070;-74
2021/06/14 12:43:46;;;;;;;4.43;3.28;;;27.20;81.30;;;;;;4335175;32;20084;-74
2021/06/14 12:46:14;;;;;;;4.45;3.50;;;27.00;83.50;;;;;;4341404;32;20148;-74
2021/06/14 12:48:40;;;;;;;4.37;3.30;;;27.10;83.70;;;;;;4338389;32;20067;-74
2021/06/14 12:51:08;;;;;;;6.03;3.58;;;27.20;85.00;;;;;;4334087;32;20147;-75
2021/06/14 12:53:34;;;;;;;4.28;3.55;;;27.30;85.90;;;;;;4371610;32;20074;-73
2021/06/14 12:56:00;;;;;;;7.25;3.50;;;27.10;89.40;;;;;;4341412;32;20516;-77
2021/06/14 12:58:28;;;;;;;6.87;3.92;;;27.10;90.60;;;;;;4344186;32;20182;-75